createdAt,value
2018-09-02T00:01:01.282Z,98625.84
2018-09-02T00:03:29.797Z,98628.53
2018-09-02T00:05:58.332Z,98622.41
2018-09-02T00:08:26.852Z,98616.52
2018-09-02T00:10:55.370Z,98612.26
2018-09-02T00:13:23.840Z,98616.00
2018-09-02T00:15:52.725Z,98615.25
2018-09-02T00:18:21.225Z,98615.77
2018-09-02T00:20:49.758Z,98611.77
2018-09-02T00:23:18.230Z,98609.40
2018-09-02T00:25:47.912Z,98610.33
2018-09-02T00:28:16.398Z,98606.13
2018-09-02T00:30:44.905Z,98606.95
2018-09-02T00:33:13.452Z,98605.27
2018-09-02T00:35:42.423Z,98604.38
2018-09-02T00:38:10.996Z,98602.62
2018-09-02T00:40:39.531Z,98595.77
2018-09-02T00:43:08.122Z,98605.27
2018-09-02T00:45:36.749Z,98594.23
2018-09-02T00:48:05.337Z,98600.18
2018-09-02T00:50:33.845Z,98597.02
2018-09-02T00:53:02.352Z,98595.98
2018-09-02T00:55:30.857Z,98588.07
2018-09-02T00:57:59.400Z,98584.08
2018-09-02T01:00:27.929Z,98586.17
2018-09-02T01:02:56.428Z,98590.20
2018-09-02T01:05:24.942Z,98588.97
2018-09-02T01:07:54.854Z,98593.81
2018-09-02T01:10:23.506Z,98591.20
2018-09-02T01:12:52.177Z,98590.03
2018-09-02T01:15:20.707Z,98593.44
2018-09-02T01:17:49.277Z,98589.38
2018-09-02T01:20:17.774Z,98585.25
2018-09-02T01:22:46.298Z,98586.62
2018-09-02T01:25:14.781Z,98588.03
2018-09-02T01:27:43.343Z,98580.22
2018-09-02T01:30:11.868Z,98574.55
2018-09-02T01:32:40.361Z,98574.75
2018-09-02T01:35:12.042Z,98570.39
2018-09-02T01:37:40.582Z,98576.95
2018-09-02T01:40:09.082Z,98572.52
2018-09-02T01:42:37.573Z,98566.95
2018-09-02T01:45:06.114Z,98570.42
2018-09-02T01:47:34.661Z,98569.63
2018-09-02T01:50:03.199Z,98568.73
2018-09-02T01:52:31.740Z,98563.92
2018-09-02T01:55:00.238Z,98562.99
2018-09-02T01:57:28.751Z,98562.58
2018-09-02T01:59:57.250Z,98555.66
2018-09-02T02:02:25.781Z,98554.73
2018-09-02T02:04:54.288Z,98556.31
2018-09-02T02:07:22.798Z,98557.24
2018-09-02T02:09:51.280Z,98557.21
2018-09-02T02:12:19.778Z,98559.89
2018-09-02T02:14:48.247Z,98555.42
2018-09-02T02:17:16.800Z,98555.98
2018-09-02T02:19:45.332Z,98553.19
2018-09-02T02:22:13.863Z,98552.05
2018-09-02T02:24:42.338Z,98545.41
2018-09-02T02:27:10.845Z,98546.17
2018-09-02T02:29:39.321Z,98536.09
2018-09-02T02:32:07.825Z,98532.72
2018-09-02T02:34:36.301Z,98530.51
2018-09-02T02:37:04.947Z,98531.90
2018-09-02T02:39:33.436Z,98522.53
2018-09-02T02:42:01.985Z,98517.97
2018-09-02T02:44:30.489Z,98522.16
2018-09-02T02:46:58.997Z,98519.20
2018-09-02T02:49:27.489Z,98518.42
2018-09-02T02:51:55.980Z,98511.52
2018-09-02T02:54:24.485Z,98516.70
2018-09-02T02:56:52.967Z,98517.63
2018-09-02T02:59:21.472Z,98528.33
2018-09-02T03:01:49.936Z,98526.36
2018-09-02T03:04:18.437Z,98518.72
2018-09-02T03:06:46.920Z,98520.68
2018-09-02T03:09:15.442Z,98517.66
2018-09-02T03:11:43.982Z,98520.20
2018-09-02T03:14:12.539Z,98523.61
2018-09-02T03:16:41.297Z,98523.88
2018-09-02T03:19:10.315Z,98523.54
2018-09-02T03:21:38.869Z,98524.22
2018-09-02T03:24:07.453Z,98525.91
2018-09-02T03:26:35.925Z,98521.53
2018-09-02T03:29:04.448Z,98524.87
2018-09-02T03:31:32.933Z,98518.40
2018-09-02T03:34:01.474Z,98513.55
2018-09-02T03:36:29.921Z,98519.77
2018-09-02T03:38:58.394Z,98517.73
2018-09-02T03:41:26.880Z,98515.84
2018-09-02T03:43:55.424Z,98515.41
2018-09-02T03:46:23.898Z,98515.66
2018-09-02T03:48:52.493Z,98511.55
2018-09-02T03:51:21.001Z,98518.59
2018-09-02T03:53:49.535Z,98513.16
2018-09-02T03:56:18.019Z,98513.63
2018-09-02T03:58:46.635Z,98509.47
2018-09-02T04:01:15.100Z,98511.45
2018-09-02T04:03:43.642Z,98506.33
2018-09-02T04:06:12.122Z,98504.08
2018-09-02T04:08:40.630Z,98507.00
2018-09-02T04:11:09.126Z,98504.11
2018-09-02T04:13:37.633Z,98500.91
2018-09-02T04:16:06.144Z,98503.07
2018-09-02T04:18:34.651Z,98505.51
2018-09-02T04:21:03.105Z,98501.91
2018-09-02T04:23:31.587Z,98501.09
2018-09-02T04:26:00.095Z,98505.78
2018-09-02T04:28:28.606Z,98506.24
2018-09-02T04:30:57.085Z,98506.08
2018-09-02T04:33:25.590Z,98511.61
2018-09-02T04:35:54.063Z,98504.08
2018-09-02T04:38:22.527Z,98500.97
2018-09-02T04:40:51.041Z,98507.03
2018-09-02T04:43:19.514Z,98498.98
2018-09-02T04:45:48.054Z,98501.17
2018-09-02T04:48:16.554Z,98506.21
2018-09-02T04:50:45.058Z,98499.28
2018-09-02T04:53:13.549Z,98495.53
2018-09-02T04:55:42.080Z,98491.02
2018-09-02T04:58:10.566Z,98495.11
2018-09-02T05:00:39.073Z,98493.70
2018-09-02T05:03:07.558Z,98494.62
2018-09-02T05:05:36.054Z,98487.42
2018-09-02T05:08:04.529Z,98495.26
2018-09-02T05:10:33.047Z,98493.13
2018-09-02T05:13:01.497Z,98501.99
2018-09-02T05:15:30.010Z,98500.84
2018-09-02T05:17:58.574Z,98498.63
2018-09-02T05:20:27.062Z,98502.66
2018-09-02T05:22:55.562Z,98509.11
2018-09-02T05:25:24.118Z,98514.50
2018-09-02T05:27:52.650Z,98514.91
2018-09-02T05:30:21.226Z,98525.34
2018-09-02T05:32:49.745Z,98525.39
2018-09-02T05:35:18.253Z,98518.11
2018-09-02T05:37:46.737Z,98522.13
2018-09-02T05:40:15.252Z,98518.02
2018-09-02T05:42:43.874Z,98520.67
2018-09-02T05:45:12.369Z,98514.81
2018-09-02T05:47:40.854Z,98515.98
2018-09-02T05:50:09.390Z,98510.02
2018-09-02T05:52:37.889Z,98516.43
2018-09-02T05:55:07.026Z,98520.70
2018-09-02T05:57:35.572Z,98514.62
2018-09-02T06:00:04.535Z,98519.62
2018-09-02T06:02:33.029Z,98516.12
2018-09-02T06:05:01.634Z,98512.77
2018-09-02T06:07:30.136Z,98512.31
2018-09-02T06:09:58.645Z,98515.91
2018-09-02T06:12:27.144Z,98511.70
2018-09-02T06:14:55.650Z,98518.12
2018-09-02T06:17:24.244Z,98518.45
2018-09-02T06:19:52.718Z,98523.24
2018-09-02T06:22:21.202Z,98515.19
2018-09-02T06:24:49.728Z,98515.17
2018-09-02T06:27:18.188Z,98520.55
2018-09-02T06:29:46.722Z,98514.08
2018-09-02T06:32:15.186Z,98516.00
2018-09-02T06:34:43.663Z,98523.83
2018-09-02T06:37:12.174Z,98530.19
2018-09-02T06:39:40.733Z,98529.36
2018-09-02T06:42:09.238Z,98527.53
2018-09-02T06:44:37.745Z,98529.48
2018-09-02T06:47:06.273Z,98530.89
2018-09-02T06:49:34.761Z,98539.59
2018-09-02T06:52:03.250Z,98540.73
2018-09-02T06:54:31.897Z,98540.05
2018-09-02T06:57:00.406Z,98536.77
2018-09-02T06:59:28.888Z,98532.02
2018-09-02T07:01:57.385Z,98533.81
2018-09-02T07:04:26.716Z,98541.73
2018-09-02T07:06:55.228Z,98536.48
2018-09-02T07:09:23.736Z,98540.16
2018-09-02T07:11:52.527Z,98542.00
2018-09-02T07:14:21.013Z,98542.82
2018-09-02T07:16:51.400Z,98549.37
2018-09-02T07:19:20.074Z,98548.62
2018-09-02T07:21:49.149Z,98550.53
2018-09-02T07:24:22.313Z,98539.76
2018-09-02T07:26:50.816Z,98535.07
2018-09-02T07:29:19.273Z,98518.19
2018-09-02T07:31:48.645Z,98528.64
2018-09-02T07:34:17.295Z,98528.54
2018-09-02T07:36:45.877Z,98531.22
2018-09-02T07:39:14.389Z,98521.09
2018-09-02T07:41:43.592Z,98519.20
2018-09-02T07:44:12.438Z,98518.88
2018-09-02T07:46:42.700Z,98521.58
2018-09-02T07:49:11.861Z,98524.59
2018-09-02T07:51:40.360Z,98517.03
2018-09-02T07:54:08.825Z,98513.67
2018-09-02T07:56:37.639Z,98514.36
2018-09-02T07:59:06.265Z,98521.80
2018-09-02T08:01:34.997Z,98533.41
2018-09-02T08:04:03.665Z,98544.52
2018-09-02T08:06:33.147Z,98549.27
2018-09-02T08:09:01.653Z,98546.31
2018-09-02T08:11:30.169Z,98549.20
2018-09-02T08:13:59.561Z,98549.00
2018-09-02T08:16:28.054Z,98553.20
2018-09-02T08:18:56.649Z,98559.14
2018-09-02T08:21:25.134Z,98554.01
2018-09-02T08:23:53.589Z,98550.48
2018-09-02T08:26:22.087Z,98552.63
2018-09-02T08:28:50.605Z,98551.51
2018-09-02T08:31:19.158Z,98558.52
2018-09-02T08:33:47.632Z,98557.46
2018-09-02T08:36:16.146Z,98559.41
2018-09-02T08:38:44.668Z,98556.20
2018-09-02T08:41:13.150Z,98559.67
2018-09-02T08:43:41.650Z,98554.83
2018-09-02T08:46:10.137Z,98554.77
2018-09-02T08:48:38.649Z,98561.59
2018-09-02T08:51:07.180Z,98570.27
2018-09-02T08:53:35.690Z,98562.58
2018-09-02T08:56:04.244Z,98572.03
2018-09-02T08:58:32.728Z,98565.94
2018-09-02T09:01:01.206Z,98569.84
2018-09-02T09:03:29.757Z,98568.08
2018-09-02T09:05:58.230Z,98561.60
2018-09-02T09:08:26.879Z,98555.44
2018-09-02T09:10:56.738Z,98538.89
2018-09-02T09:13:25.238Z,98532.67
2018-09-02T09:15:53.778Z,98534.06
2018-09-02T09:18:22.277Z,98502.10
2018-09-02T09:20:50.867Z,98512.48
2018-09-02T09:23:19.437Z,98520.03
2018-09-02T09:25:47.905Z,98529.95
2018-09-02T09:31:10.162Z,98542.76
2018-09-02T09:33:39.341Z,98554.16
2018-09-02T09:36:07.963Z,98552.97
2018-09-02T09:38:36.486Z,98558.63
2018-09-02T09:41:06.262Z,98563.69
2018-09-02T09:43:34.782Z,98572.94
2018-09-02T09:46:03.300Z,98570.83
2018-09-02T09:48:31.798Z,98559.27
2018-09-02T09:51:00.291Z,98555.67
2018-09-02T09:53:28.814Z,98553.47
2018-09-02T09:55:57.358Z,98558.44
2018-09-02T09:58:30.946Z,98558.70
2018-09-02T10:00:59.433Z,98560.80
2018-09-02T10:03:27.952Z,98563.39
2018-09-02T10:05:56.430Z,98567.00
2018-09-02T10:08:24.942Z,98563.69
2018-09-02T10:10:53.466Z,98569.05
2018-09-02T10:13:21.982Z,98567.55
2018-09-02T10:15:50.508Z,98559.00
2018-09-02T10:18:19.091Z,98564.92
2018-09-02T10:20:47.510Z,98552.83
2018-09-02T10:23:16.034Z,98554.45
2018-09-02T10:25:44.525Z,98553.80
2018-09-02T10:28:13.126Z,98559.95
2018-09-02T10:30:42.361Z,98562.64
2018-09-02T10:33:10.949Z,98558.22
2018-09-02T10:35:39.452Z,98556.08
2018-09-02T10:38:07.946Z,98551.89
2018-09-02T10:40:36.428Z,98543.02
2018-09-02T10:43:04.962Z,98545.78
2018-09-02T10:48:26.301Z,98544.80
2018-09-02T10:53:47.381Z,98536.91
2018-09-02T11:10:38.326Z,98550.75
2018-09-02T11:13:07.825Z,98544.48
2018-09-02T11:18:29.627Z,98544.08
2018-09-02T11:20:58.150Z,98546.97
2018-09-02T11:23:26.708Z,98547.28
2018-09-02T11:25:55.273Z,98544.53
2018-09-02T11:28:23.802Z,98546.45
2018-09-02T11:30:52.298Z,98535.23
2018-09-02T11:33:20.893Z,98532.55
2018-09-02T11:35:49.527Z,98525.83
2018-09-02T11:38:18.094Z,98519.39
2018-09-02T11:40:47.170Z,98524.80
2018-09-02T11:43:16.778Z,98516.94
2018-09-02T11:45:45.702Z,98517.41
2018-09-02T11:48:19.854Z,98509.67
2018-09-02T11:50:48.398Z,98506.88
2018-09-02T11:53:16.946Z,98514.67
2018-09-02T11:55:45.492Z,98514.85
2018-09-02T11:58:13.996Z,98516.80
2018-09-02T12:00:42.587Z,98509.53
2018-09-02T12:03:11.132Z,98519.12
2018-09-02T12:05:46.370Z,98510.77
2018-09-02T12:08:16.539Z,98518.38
2018-09-02T12:10:49.982Z,98524.41
2018-09-02T12:13:18.500Z,98521.39
2018-09-02T12:15:47.116Z,98510.61
2018-09-02T12:18:15.700Z,98515.01
2018-09-02T12:20:44.830Z,98511.61
2018-09-02T12:23:13.306Z,98516.14
2018-09-02T12:46:42.432Z,98485.28
2018-09-02T12:52:17.643Z,98482.84
2018-09-02T12:57:39.354Z,98475.88
2018-09-02T13:03:00.532Z,98469.38
2018-09-02T13:08:22.027Z,98457.59
2018-09-02T13:10:50.601Z,98461.37
2018-09-02T13:16:21.513Z,98470.56
2018-09-02T13:18:50.038Z,98479.70
2018-09-02T13:21:18.516Z,98476.21
2018-09-02T13:23:47.050Z,98471.61
2018-09-02T13:26:15.598Z,98469.44
2018-09-02T13:28:44.086Z,98473.73
2018-09-02T13:31:12.631Z,98471.80
2018-09-02T13:33:41.124Z,98469.87
2018-09-02T13:42:25.210Z,98462.77
2018-09-02T13:44:55.435Z,98468.73
2018-09-02T13:47:31.358Z,98469.27
2018-09-02T13:49:59.915Z,98473.53
2018-09-02T13:55:26.635Z,98485.40
2018-09-02T14:03:40.137Z,98478.38
2018-09-02T14:29:51.948Z,98455.77
2018-09-02T14:35:15.891Z,98454.86
2018-09-02T14:37:46.390Z,98455.44
2018-09-02T14:57:53.002Z,98442.30
2018-09-02T15:03:19.902Z,98438.87
2018-09-02T15:17:26.759Z,98447.14
2018-09-02T15:31:49.257Z,98437.50
2018-09-02T16:03:33.378Z,98398.63
2018-09-02T16:06:02.019Z,98403.50
2018-09-02T16:08:30.555Z,98400.23
2018-09-02T16:10:59.082Z,98402.98
2018-09-02T16:13:27.626Z,98401.59
2018-09-02T16:15:56.119Z,98406.45
2018-09-02T16:18:24.662Z,98405.63
2018-09-02T16:20:53.200Z,98408.33
2018-09-02T16:23:21.747Z,98402.63
2018-09-02T16:25:50.293Z,98401.53
2018-09-02T16:31:13.854Z,98399.61
2018-09-02T16:36:37.865Z,98392.59
2018-09-02T16:39:10.229Z,98389.61
2018-09-02T16:44:53.345Z,98393.03
2018-09-02T16:53:31.079Z,98381.95
2018-09-02T17:19:05.000Z,98378.28
2018-09-02T17:41:50.238Z,98356.37
2018-09-02T17:44:23.175Z,98360.61
2018-09-02T17:49:44.564Z,98355.38
2018-09-02T17:55:05.941Z,98349.66
2018-09-02T18:03:39.395Z,98362.31
2018-09-02T18:09:00.887Z,98365.48
2018-09-02T18:11:31.114Z,98367.88
2018-09-02T18:13:59.826Z,98367.28
2018-09-02T18:16:28.343Z,98361.34
2018-09-02T18:18:56.921Z,98373.56
2018-09-02T18:21:25.377Z,98372.48
2018-09-02T18:23:53.898Z,98370.58
2018-09-02T18:26:22.359Z,98375.40
2018-09-02T18:28:51.479Z,98380.86
2018-09-02T18:31:20.006Z,98382.25
2018-09-02T18:33:48.557Z,98383.34
2018-09-02T18:36:17.139Z,98374.12
2018-09-02T18:38:45.722Z,98384.64
2018-09-02T18:41:14.289Z,98380.05
2018-09-02T18:43:44.051Z,98382.78
2018-09-02T18:46:12.958Z,98384.98
2018-09-02T18:48:41.493Z,98383.30
2018-09-02T18:51:10.217Z,98385.17
2018-09-02T18:53:38.942Z,98385.23
2018-09-02T18:56:07.561Z,98381.72
2018-09-02T18:58:36.318Z,98378.77
2018-09-02T19:01:05.334Z,98379.33
2018-09-02T19:03:33.884Z,98387.48
2018-09-02T19:06:03.330Z,98381.50
2018-09-02T19:08:31.890Z,98380.08
2018-09-02T19:11:00.458Z,98385.95
2018-09-02T19:13:28.938Z,98383.30
2018-09-02T19:15:57.526Z,98376.30
2018-09-02T19:18:26.022Z,98382.77
2018-09-02T19:20:54.535Z,98364.97
2018-09-02T19:23:23.034Z,98372.48
2018-09-02T19:25:51.555Z,98367.58
2018-09-02T19:28:20.058Z,98364.41
2018-09-02T19:30:48.559Z,98364.29
2018-09-02T19:33:17.046Z,98363.24
2018-09-02T19:35:45.551Z,98357.97
2018-09-02T19:38:14.080Z,98361.41
2018-09-02T19:40:42.586Z,98356.32
2018-09-02T19:43:11.105Z,98361.45
2018-09-02T19:45:39.590Z,98363.58
2018-09-02T19:48:08.073Z,98363.66
2018-09-02T19:50:36.573Z,98361.75
2018-09-02T19:53:05.098Z,98365.23
2018-09-02T19:55:33.629Z,98358.76
2018-09-02T19:58:02.156Z,98365.48
2018-09-02T20:00:30.671Z,98370.80
2018-09-02T20:02:59.165Z,98376.44
2018-09-02T20:05:27.694Z,98373.70
2018-09-02T20:07:56.235Z,98378.80
2018-09-02T20:10:24.760Z,98366.20
2018-09-02T20:12:53.274Z,98372.41
2018-09-02T20:15:21.808Z,98366.38
2018-09-02T20:17:50.307Z,98367.50
2018-09-02T20:20:18.894Z,98360.55
2018-09-02T20:22:47.374Z,98364.36
2018-09-02T20:25:15.886Z,98366.86
2018-09-02T20:27:44.366Z,98367.12
2018-09-02T20:30:13.070Z,98362.89
2018-09-02T20:32:41.614Z,98363.24
2018-09-02T20:35:10.131Z,98360.63
2018-09-02T20:37:38.632Z,98363.92
2018-09-02T20:40:08.370Z,98363.36
2018-09-02T20:42:36.875Z,98358.53
2018-09-02T20:45:05.491Z,98364.97
2018-09-02T20:50:26.082Z,98348.69
2018-09-02T20:55:50.799Z,98356.39
2018-09-02T20:58:19.408Z,98361.86
2018-09-02T21:00:52.774Z,98362.98
2018-09-02T21:06:14.378Z,98371.09
2018-09-02T21:08:42.882Z,98363.84
2018-09-02T21:11:12.137Z,98360.89
2018-09-02T21:16:33.969Z,98373.01
2018-09-02T21:19:02.673Z,98360.36
2018-09-02T21:21:32.211Z,98363.80
2018-09-02T21:24:02.801Z,98364.14
2018-09-02T21:32:16.805Z,98364.89
2018-09-02T21:34:45.394Z,98367.63
2018-09-02T21:37:15.792Z,98367.92
2018-09-02T21:39:47.310Z,98356.06
2018-09-02T21:45:07.050Z,98322.89
2018-09-02T21:47:37.541Z,98311.78
2018-09-02T21:50:06.418Z,98302.06
2018-09-02T21:55:31.046Z,98297.53
2018-09-02T21:58:05.578Z,98296.37
2018-09-02T22:00:34.114Z,98287.73
2018-09-02T22:05:55.067Z,98272.63
2018-09-02T22:08:23.868Z,98266.69
2018-09-02T22:10:52.397Z,98256.66
2018-09-02T22:13:20.876Z,98240.74
2018-09-02T22:15:49.380Z,98235.67
2018-09-02T22:18:17.867Z,98230.28
2018-09-02T22:20:46.394Z,98234.63
2018-09-02T22:23:14.845Z,98227.70
2018-09-02T22:25:43.369Z,98227.75
2018-09-02T22:28:11.853Z,98223.67
2018-09-02T22:30:40.346Z,98234.70
2018-09-02T22:33:08.884Z,98239.34
2018-09-02T22:35:37.373Z,98246.02
2018-09-02T22:38:05.952Z,98259.22
2018-09-02T22:40:34.456Z,98260.41
2018-09-02T22:43:02.958Z,98255.55
2018-09-02T22:45:31.468Z,98243.97
2018-09-02T22:48:00.041Z,98244.26
2018-09-02T22:50:28.577Z,98244.52
2018-09-02T22:52:57.053Z,98243.17
2018-09-02T22:55:25.556Z,98246.73
2018-09-02T22:57:54.086Z,98240.06
2018-09-02T23:00:22.578Z,98245.48
2018-09-02T23:02:51.074Z,98241.19
2018-09-02T23:05:19.609Z,98230.97
2018-09-02T23:07:48.120Z,98236.06
2018-09-02T23:10:16.615Z,98232.52
2018-09-02T23:12:45.683Z,98236.55
2018-09-02T23:15:14.285Z,98243.28
2018-09-02T23:17:42.830Z,98237.61
2018-09-02T23:20:11.360Z,98245.61
2018-09-02T23:22:40.125Z,98252.94
2018-09-02T23:25:10.153Z,98262.09
2018-09-02T23:27:38.726Z,98249.75
2018-09-02T23:30:07.225Z,98258.91
2018-09-02T23:32:35.721Z,98264.03
2018-09-02T23:35:04.314Z,98268.33
2018-09-02T23:37:32.842Z,98260.48
2018-09-02T23:42:53.506Z,98255.22
2018-09-02T23:45:22.029Z,98258.43
2018-09-02T23:47:51.118Z,98244.98
2018-09-02T23:50:19.625Z,98236.09
2018-09-02T23:53:06.056Z,98243.11
2018-09-02T23:55:34.623Z,98230.70
2018-09-02T23:58:07.180Z,98228.56
